createdAt,value
2018-09-03T00:00:33.755Z,8.90
2018-09-03T00:03:02.271Z,9.37
2018-09-03T00:05:30.968Z,8.63
2018-09-03T00:07:59.437Z,10.83
2018-09-03T00:10:28.099Z,7.83
2018-09-03T00:12:56.672Z,10.03
2018-09-03T00:15:25.197Z,8.27
2018-09-03T00:17:53.594Z,9.17
2018-09-03T00:20:22.168Z,8.73
2018-09-03T00:22:50.572Z,7.83
2018-09-03T00:25:18.984Z,8.73
2018-09-03T00:27:47.703Z,9.03
2018-09-03T00:30:16.246Z,8.23
2018-09-03T00:32:49.926Z,7.97
2018-09-03T00:36:27.469Z,8.77
2018-09-03T00:39:01.187Z,9.47
2018-09-03T00:41:34.749Z,8.70
2018-09-03T00:44:08.397Z,10.70
2018-09-03T00:46:42.138Z,8.83
2018-09-03T00:49:10.691Z,8.50
2018-09-03T00:51:39.299Z,9.27
2018-09-03T00:54:07.860Z,9.40
2018-09-03T00:56:36.480Z,9.53
2018-09-03T00:59:05.100Z,9.20
2018-09-03T01:01:33.615Z,8.47
2018-09-03T01:04:02.230Z,10.00
2018-09-03T01:06:30.656Z,8.50
2018-09-03T01:08:59.195Z,9.20
2018-09-03T01:11:27.817Z,9.37
2018-09-03T01:13:56.920Z,9.73
2018-09-03T01:16:25.336Z,8.87
2018-09-03T01:18:56.796Z,9.73
2018-09-03T01:21:26.148Z,8.57
2018-09-03T01:23:55.247Z,10.53
2018-09-03T01:26:23.789Z,9.33
2018-09-03T01:28:52.344Z,10.27
2018-09-03T01:31:21.632Z,8.97
2018-09-03T01:33:52.405Z,9.33
2018-09-03T01:36:21.299Z,8.90
2018-09-03T01:38:49.708Z,9.00
2018-09-03T01:41:18.914Z,9.27
2018-09-03T01:43:48.132Z,9.00
2018-09-03T01:46:16.766Z,8.03
2018-09-03T01:48:45.163Z,9.20
2018-09-03T01:51:13.568Z,9.17
2018-09-03T01:53:42.052Z,8.33
2018-09-03T01:56:10.502Z,8.80
2018-09-03T01:58:38.934Z,8.43
2018-09-03T02:01:07.475Z,11.07
2018-09-03T02:03:35.880Z,8.10
2018-09-03T02:06:04.298Z,9.30
2018-09-03T02:08:32.711Z,9.03
2018-09-03T02:11:01.484Z,8.80
2018-09-03T02:13:31.082Z,9.03
2018-09-03T02:15:59.496Z,10.00
2018-09-03T02:18:28.080Z,9.10
2018-09-03T02:20:56.720Z,10.60
2018-09-03T02:23:25.119Z,9.07
2018-09-03T02:25:53.835Z,9.00
2018-09-03T02:28:22.401Z,9.27
2018-09-03T02:30:50.973Z,10.13
2018-09-03T02:33:19.431Z,9.57
2018-09-03T02:35:47.950Z,9.07
2018-09-03T02:38:16.559Z,9.10
2018-09-03T02:40:45.258Z,9.33
2018-09-03T02:43:13.717Z,9.70
2018-09-03T02:45:42.990Z,8.73
2018-09-03T02:48:11.475Z,10.57
2018-09-03T02:50:39.929Z,9.30
2018-09-03T02:53:08.456Z,10.17
2018-09-03T02:55:36.926Z,8.80
2018-09-03T02:58:05.632Z,9.27
2018-09-03T03:00:34.359Z,9.17
2018-09-03T03:03:03.423Z,9.13
2018-09-03T03:05:32.399Z,8.80
2018-09-03T03:08:00.819Z,9.77
2018-09-03T03:10:29.200Z,9.10
2018-09-03T03:12:57.928Z,8.10
2018-09-03T03:15:26.308Z,7.60
2018-09-03T03:17:54.729Z,8.53
2018-09-03T03:20:23.136Z,8.97
2018-09-03T03:22:51.537Z,8.53
2018-09-03T03:25:23.166Z,9.13
2018-09-03T03:27:51.557Z,8.60
2018-09-03T03:30:20.142Z,7.83
2018-09-03T03:32:48.512Z,8.63
2018-09-03T03:35:17.008Z,9.57
2018-09-03T03:37:47.818Z,7.70
2018-09-03T03:40:17.012Z,9.40
2018-09-03T03:42:45.504Z,8.37
2018-09-03T03:45:14.007Z,9.70
2018-09-03T03:47:42.500Z,7.93
2018-09-03T03:50:11.213Z,9.67
2018-09-03T03:52:39.734Z,8.53
2018-09-03T03:55:08.751Z,11.90
2018-09-03T03:57:37.744Z,7.30
2018-09-03T04:00:06.422Z,8.10
2018-09-03T04:02:34.844Z,8.87
2018-09-03T04:05:03.297Z,8.10
2018-09-03T04:07:32.068Z,8.60
2018-09-03T04:10:00.605Z,8.80
2018-09-03T04:12:29.021Z,8.73
2018-09-03T04:14:57.500Z,9.40
2018-09-03T04:17:26.101Z,8.60
2018-09-03T04:19:58.819Z,8.70
2018-09-03T04:22:27.524Z,8.80
2018-09-03T04:24:56.031Z,9.07
2018-09-03T04:27:24.545Z,8.07
2018-09-03T04:29:53.148Z,8.60
2018-09-03T04:32:21.854Z,10.17
2018-09-03T04:34:50.375Z,7.97
2018-09-03T04:37:19.325Z,9.37
2018-09-03T04:39:48.041Z,8.83
2018-09-03T04:42:16.710Z,11.93
2018-09-03T04:44:46.064Z,8.67
2018-09-03T04:47:14.536Z,8.37
2018-09-03T04:49:42.941Z,9.30
2018-09-03T04:52:11.564Z,8.23
2018-09-03T04:54:40.090Z,8.83
2018-09-03T04:57:08.435Z,8.20
2018-09-03T04:59:36.882Z,8.80
2018-09-03T05:02:05.676Z,8.90
2018-09-03T05:04:34.206Z,8.70
2018-09-03T05:07:02.752Z,9.50
2018-09-03T05:09:31.508Z,8.13
2018-09-03T05:11:59.927Z,8.80
2018-09-03T05:14:28.693Z,8.50
2018-09-03T05:16:57.891Z,8.97
2018-09-03T05:19:26.305Z,9.60
2018-09-03T05:21:54.983Z,8.70
2018-09-03T05:24:23.515Z,9.93
2018-09-03T05:26:52.009Z,8.50
2018-09-03T05:29:20.531Z,10.83
2018-09-03T05:31:48.970Z,8.60
2018-09-03T05:34:17.364Z,8.87
2018-09-03T05:36:45.838Z,9.30
2018-09-03T05:39:14.383Z,9.07
2018-09-03T05:41:42.831Z,9.43
2018-09-03T05:44:11.281Z,8.93
2018-09-03T05:46:40.235Z,8.43
2018-09-03T05:49:09.423Z,13.23
2018-09-03T05:51:37.897Z,8.60
2018-09-03T05:54:06.511Z,8.93
2018-09-03T05:56:35.193Z,9.07
2018-09-03T05:59:03.975Z,9.07
2018-09-03T06:01:32.549Z,8.23
2018-09-03T06:04:01.016Z,8.20
2018-09-03T06:06:29.455Z,9.63
2018-09-03T06:08:58.600Z,8.77
2018-09-03T06:11:27.753Z,9.63
2018-09-03T06:13:56.278Z,8.73
2018-09-03T06:16:25.032Z,10.57
2018-09-03T06:18:53.664Z,9.10
2018-09-03T06:21:22.257Z,10.30
2018-09-03T06:23:50.838Z,9.20
2018-09-03T06:26:19.297Z,10.00
2018-09-03T06:28:47.746Z,9.27
2018-09-03T06:31:16.477Z,10.20
2018-09-03T06:33:45.010Z,8.93
2018-09-03T06:36:13.544Z,10.17
2018-09-03T06:38:43.356Z,9.30
2018-09-03T06:41:12.216Z,8.00
2018-09-03T06:43:40.725Z,8.37
2018-09-03T06:46:09.346Z,9.03
2018-09-03T06:48:37.755Z,9.30
2018-09-03T06:51:06.300Z,8.33
2018-09-03T06:53:37.351Z,8.80
2018-09-03T06:56:05.788Z,9.20
2018-09-03T06:58:34.194Z,10.90
2018-09-03T07:01:02.626Z,8.87
2018-09-03T07:03:31.037Z,9.80
2018-09-03T07:05:59.452Z,9.60
2018-09-03T07:08:28.030Z,10.73
2018-09-03T07:10:56.427Z,9.33
2018-09-03T07:13:24.947Z,9.70
2018-09-03T07:15:53.354Z,9.43
2018-09-03T07:18:22.201Z,10.23
2018-09-03T07:20:50.698Z,9.00
2018-09-03T07:23:19.377Z,8.63
2018-09-03T07:25:48.056Z,9.80
2018-09-03T07:28:16.503Z,9.10
2018-09-03T07:30:44.925Z,8.47
2018-09-03T07:33:13.751Z,9.70
2018-09-03T07:35:42.292Z,9.40
2018-09-03T07:38:10.964Z,9.97
2018-09-03T07:40:39.376Z,9.43
2018-09-03T07:43:07.809Z,8.20
2018-09-03T07:45:36.310Z,10.27
2018-09-03T07:48:04.840Z,9.73
2018-09-03T07:50:33.576Z,10.40
2018-09-03T07:53:02.242Z,9.70
2018-09-03T07:55:30.750Z,10.50
2018-09-03T07:57:59.283Z,9.40
2018-09-03T08:00:27.682Z,10.10
2018-09-03T08:02:56.182Z,7.97
2018-09-03T08:05:24.736Z,8.93
2018-09-03T08:07:53.359Z,9.10
2018-09-03T08:10:21.867Z,8.70
2018-09-03T08:12:50.325Z,8.90
2018-09-03T08:15:18.817Z,9.77
2018-09-03T08:17:47.307Z,9.00
2018-09-03T08:20:15.957Z,7.80
2018-09-03T08:22:44.492Z,9.33
2018-09-03T08:25:13.085Z,8.40
2018-09-03T08:27:41.621Z,8.40
2018-09-03T08:30:10.111Z,9.20
2018-09-03T08:32:38.469Z,9.83
2018-09-03T08:35:06.965Z,9.07
2018-09-03T08:37:35.375Z,9.77
2018-09-03T08:40:03.844Z,8.90
2018-09-03T08:42:32.187Z,9.10
2018-09-03T08:45:00.817Z,8.10
2018-09-03T08:47:29.270Z,10.60
2018-09-03T08:49:57.813Z,9.90
2018-09-03T08:52:26.300Z,10.87
2018-09-03T08:54:55.036Z,8.70
2018-09-03T08:57:23.445Z,7.93
2018-09-03T08:59:52.023Z,8.53
2018-09-03T09:02:20.794Z,8.70
2018-09-03T09:04:49.231Z,9.10
2018-09-03T09:07:18.030Z,9.43
2018-09-03T09:09:46.468Z,9.00
2018-09-03T09:12:14.992Z,9.70
2018-09-03T09:14:43.424Z,9.63
2018-09-03T09:17:11.829Z,9.90
2018-09-03T09:19:40.280Z,10.67
2018-09-03T09:22:08.672Z,8.07
2018-09-03T09:24:37.197Z,10.37
2018-09-03T09:27:06.014Z,9.60
2018-09-03T09:29:34.567Z,10.93
2018-09-03T09:32:03.162Z,8.67
2018-09-03T09:34:31.624Z,10.27
2018-09-03T09:37:00.392Z,8.93
2018-09-03T09:39:28.913Z,11.37
2018-09-03T09:41:57.317Z,8.23
2018-09-03T09:44:25.735Z,8.53
2018-09-03T09:46:54.133Z,9.67
2018-09-03T09:49:23.474Z,9.33
2018-09-03T09:51:51.886Z,10.30
2018-09-03T09:54:20.463Z,8.37
2018-09-03T09:56:49.024Z,9.37
2018-09-03T09:59:17.472Z,9.60
2018-09-03T10:01:45.988Z,8.80
2018-09-03T10:04:14.544Z,8.17
2018-09-03T10:06:43.057Z,9.77
2018-09-03T10:09:11.531Z,8.80
2018-09-03T10:11:40.112Z,9.97
2018-09-03T10:14:08.649Z,8.40
2018-09-03T10:16:37.203Z,10.03
2018-09-03T10:19:05.814Z,9.30
2018-09-03T10:21:34.292Z,9.17
2018-09-03T10:24:02.704Z,8.50
2018-09-03T10:26:31.177Z,9.23
2018-09-03T10:28:59.637Z,8.30
2018-09-03T10:31:28.101Z,9.83
2018-09-03T10:33:56.513Z,8.87
2018-09-03T10:36:25.066Z,8.87
2018-09-03T10:38:53.612Z,10.93
2018-09-03T10:41:22.347Z,9.87
2018-09-03T10:43:50.830Z,9.40
2018-09-03T10:46:19.297Z,10.30
2018-09-03T10:48:47.828Z,8.57
2018-09-03T10:51:16.228Z,8.07
2018-09-03T10:53:44.671Z,9.70
2018-09-03T10:56:13.235Z,9.90
2018-09-03T10:58:41.628Z,11.40
2018-09-03T11:01:10.151Z,8.33
2018-09-03T11:03:38.741Z,10.33
2018-09-03T11:06:07.315Z,8.57
2018-09-03T11:08:35.957Z,10.40
2018-09-03T11:11:04.485Z,8.53
2018-09-03T11:13:32.996Z,12.27
2018-09-03T11:16:01.514Z,8.80
2018-09-03T11:18:31.164Z,10.27
2018-09-03T11:20:59.694Z,8.50
2018-09-03T11:23:28.249Z,8.63
2018-09-03T11:25:56.888Z,8.73
2018-09-03T11:28:25.431Z,8.97
2018-09-03T11:30:54.103Z,8.43
2018-09-03T11:33:22.604Z,8.80
2018-09-03T11:35:51.228Z,9.37
2018-09-03T11:38:19.794Z,8.80
2018-09-03T11:40:48.486Z,10.00
2018-09-03T11:43:16.846Z,8.23
2018-09-03T11:45:45.279Z,9.93
2018-09-03T11:48:13.702Z,9.07
2018-09-03T11:50:42.146Z,10.03
2018-09-03T11:53:10.664Z,9.00
2018-09-03T11:55:39.076Z,11.40
2018-09-03T11:58:07.548Z,9.30
2018-09-03T12:00:36.074Z,11.90
2018-09-03T12:03:04.592Z,8.07
2018-09-03T12:05:33.102Z,10.87
2018-09-03T12:08:01.560Z,8.83
2018-09-03T12:10:30.000Z,8.53
2018-09-03T12:12:58.674Z,9.00
2018-09-03T12:15:32.486Z,9.27
2018-09-03T12:18:01.071Z,8.70
2018-09-03T12:20:29.616Z,10.73
2018-09-03T12:22:58.032Z,9.17
2018-09-03T12:25:26.504Z,9.40
2018-09-03T12:27:55.023Z,9.00
2018-09-03T12:30:23.509Z,9.57
2018-09-03T12:32:51.932Z,9.23
2018-09-03T12:35:20.512Z,8.93
2018-09-03T12:37:49.006Z,9.50
2018-09-03T12:40:17.484Z,7.70
2018-09-03T12:42:45.971Z,10.20
2018-09-03T12:45:14.474Z,10.30
2018-09-03T12:47:42.940Z,11.50
2018-09-03T12:50:11.405Z,8.57
2018-09-03T12:52:40.084Z,9.57
2018-09-03T12:55:08.485Z,9.30
2018-09-03T12:57:37.095Z,9.97
2018-09-03T13:00:05.755Z,10.47
2018-09-03T13:02:39.419Z,9.70
2018-09-03T13:05:02.513Z,8.10
2018-09-03T13:07:31.369Z,8.57
2018-09-03T13:09:59.912Z,8.70
2018-09-03T13:12:28.374Z,8.83
2018-09-03T13:14:56.884Z,8.53
2018-09-03T13:17:25.473Z,9.03
2018-09-03T13:19:53.928Z,9.73
2018-09-03T13:22:22.425Z,8.67
2018-09-03T13:24:51.060Z,9.17
2018-09-03T13:27:19.705Z,8.87
2018-09-03T13:29:54.757Z,9.90
2018-09-03T13:32:23.181Z,8.83
2018-09-03T13:34:51.991Z,9.23
2018-09-03T13:37:20.435Z,9.20
2018-09-03T13:39:48.920Z,9.57
2018-09-03T13:42:17.908Z,8.13
2018-09-03T13:44:46.439Z,9.10
2018-09-03T13:47:15.020Z,10.40
2018-09-03T13:49:43.529Z,11.37
2018-09-03T13:52:12.341Z,9.03
2018-09-03T13:54:40.785Z,10.23
2018-09-03T13:57:09.388Z,8.57
2018-09-03T13:59:37.963Z,9.53
2018-09-03T14:02:06.534Z,8.80
2018-09-03T14:04:35.272Z,7.83
2018-09-03T14:07:03.892Z,9.87
2018-09-03T14:09:33.637Z,9.47
2018-09-03T14:12:02.249Z,9.30
2018-09-03T14:14:30.846Z,7.83
2018-09-03T14:16:59.773Z,8.50
2018-09-03T14:19:28.255Z,8.93
2018-09-03T14:21:57.135Z,10.07
2018-09-03T14:24:25.749Z,9.60
2018-09-03T14:26:54.522Z,9.60
2018-09-03T14:29:22.924Z,9.43
2018-09-03T14:31:52.077Z,10.60
2018-09-03T14:34:20.657Z,9.40
2018-09-03T14:36:49.295Z,12.50
2018-09-03T14:39:17.726Z,10.37
2018-09-03T14:41:46.648Z,12.63
2018-09-03T14:44:15.117Z,9.40
2018-09-03T14:46:43.724Z,11.40
2018-09-03T14:49:12.470Z,9.07
2018-09-03T14:51:41.642Z,10.83
2018-09-03T14:54:10.185Z,10.17
2018-09-03T14:56:38.748Z,9.50
2018-09-03T14:59:07.229Z,9.23
2018-09-03T15:01:35.962Z,9.67
2018-09-03T15:04:04.673Z,10.37
2018-09-03T15:06:33.113Z,10.50
2018-09-03T15:09:01.604Z,9.80
2018-09-03T15:11:30.249Z,8.93
2018-09-03T15:13:59.908Z,12.03
2018-09-03T15:16:31.718Z,9.73
2018-09-03T15:19:01.775Z,9.07
2018-09-03T15:21:30.436Z,10.50
2018-09-03T15:23:59.131Z,11.43
2018-09-03T15:26:27.940Z,8.50
2018-09-03T15:28:56.446Z,11.77
2018-09-03T15:31:25.081Z,9.37
2018-09-03T15:33:53.874Z,10.23
2018-09-03T15:36:22.683Z,9.43
2018-09-03T15:38:51.133Z,12.07
2018-09-03T15:41:19.777Z,9.07
2018-09-03T15:43:48.300Z,11.83
2018-09-03T15:46:16.792Z,9.70
2018-09-03T15:48:45.352Z,9.70
2018-09-03T15:51:13.738Z,10.97
2018-09-03T15:53:42.234Z,11.27
2018-09-03T15:56:10.957Z,9.30
2018-09-03T15:58:39.823Z,9.43
2018-09-03T16:01:08.485Z,10.13
2018-09-03T16:03:36.954Z,9.60
2018-09-03T16:06:05.920Z,10.97
2018-09-03T16:08:34.635Z,9.63
2018-09-03T16:11:03.089Z,9.90
2018-09-03T16:13:31.593Z,10.43
2018-09-03T16:16:00.228Z,10.17
2018-09-03T16:18:28.846Z,9.97
2018-09-03T16:20:57.464Z,11.40
2018-09-03T16:23:25.982Z,10.57
2018-09-03T16:25:54.452Z,12.70
2018-09-03T16:28:22.937Z,10.43
2018-09-03T16:30:51.395Z,12.67
2018-09-03T16:33:19.962Z,9.20
2018-09-03T16:35:48.579Z,10.97
2018-09-03T16:38:17.111Z,10.13
2018-09-03T16:40:45.645Z,9.97
2018-09-03T16:43:14.351Z,9.90
2018-09-03T16:45:43.379Z,9.50
2018-09-03T16:48:12.033Z,10.70
2018-09-03T16:50:40.513Z,10.13
2018-09-03T16:53:09.139Z,8.93
2018-09-03T16:55:37.761Z,9.73
2018-09-03T16:58:06.291Z,10.00
2018-09-03T17:00:35.081Z,8.80
2018-09-03T17:03:03.514Z,10.60
2018-09-03T17:05:32.016Z,9.70
2018-09-03T17:08:00.713Z,11.43
2018-09-03T17:10:29.160Z,9.80
2018-09-03T17:12:57.672Z,13.80
2018-09-03T17:15:26.316Z,9.53
2018-09-03T17:17:54.833Z,11.33
2018-09-03T17:20:23.346Z,10.90
2018-09-03T17:22:51.725Z,11.47
2018-09-03T17:25:20.266Z,9.77
2018-09-03T17:27:48.787Z,10.20
2018-09-03T17:30:18.085Z,10.20
2018-09-03T17:32:47.288Z,8.57
2018-09-03T17:35:15.913Z,9.63
2018-09-03T17:37:44.323Z,11.23
2018-09-03T17:40:13.065Z,9.10
2018-09-03T17:42:41.581Z,9.20
2018-09-03T17:45:10.530Z,8.87
2018-09-03T17:47:40.181Z,10.40
2018-09-03T17:50:08.825Z,11.40
2018-09-03T17:52:37.668Z,10.17
2018-09-03T17:55:06.752Z,13.23
2018-09-03T17:57:35.416Z,9.67
2018-09-03T18:00:04.186Z,10.93
2018-09-03T18:02:33.512Z,10.17
2018-09-03T18:05:02.269Z,12.37
2018-09-03T18:07:30.880Z,9.27
2018-09-03T18:09:59.552Z,8.90
2018-09-03T18:12:28.199Z,10.43
2018-09-03T18:14:56.996Z,10.40
2018-09-03T18:17:25.597Z,9.50
2018-09-03T18:19:54.109Z,9.47
2018-09-03T18:22:22.540Z,9.70
2018-09-03T18:24:51.440Z,8.60
2018-09-03T18:27:20.037Z,9.00
2018-09-03T18:29:48.587Z,10.10
2018-09-03T18:32:17.218Z,9.33
2018-09-03T18:34:45.708Z,9.23
2018-09-03T18:37:14.223Z,10.70
2018-09-03T18:39:42.914Z,10.63
2018-09-03T18:42:11.455Z,12.87
2018-09-03T18:44:39.944Z,14.60
2018-09-03T18:47:08.610Z,16.90
2018-09-03T18:49:37.245Z,15.90
2018-09-03T18:52:06.060Z,15.33
2018-09-03T18:54:35.185Z,14.23
2018-09-03T18:57:03.852Z,15.93
2018-09-03T18:59:32.801Z,15.07
2018-09-03T19:02:01.692Z,17.90
2018-09-03T19:04:30.686Z,15.10
2018-09-03T19:06:59.554Z,16.20
2018-09-03T19:09:28.978Z,15.40
2018-09-03T19:11:57.539Z,15.97
2018-09-03T19:14:26.011Z,15.03
2018-09-03T19:16:55.018Z,16.40
2018-09-03T19:19:24.935Z,14.20
2018-09-03T19:21:53.844Z,14.53
2018-09-03T19:24:22.368Z,15.23
2018-09-03T19:26:50.820Z,15.47
2018-09-03T19:29:19.787Z,14.93
2018-09-03T19:31:48.807Z,15.20
2018-09-03T19:34:17.608Z,16.10
2018-09-03T19:36:46.863Z,13.77
2018-09-03T19:39:15.807Z,16.37
2018-09-03T19:41:45.447Z,14.60
2018-09-03T19:44:14.033Z,15.70
2018-09-03T19:46:42.604Z,14.33
2018-09-03T19:49:11.947Z,14.47
2018-09-03T19:51:40.492Z,15.13
2018-09-03T19:54:09.273Z,16.00
2018-09-03T19:56:37.871Z,16.17
2018-09-03T19:59:06.708Z,16.93
2018-09-03T20:01:35.258Z,15.00
2018-09-03T20:04:03.860Z,15.80
2018-09-03T20:06:32.721Z,15.07
2018-09-03T20:09:01.610Z,16.57
2018-09-03T20:11:30.296Z,15.93
2018-09-03T20:14:00.221Z,17.03
2018-09-03T20:16:28.741Z,14.87
2018-09-03T20:18:57.436Z,14.47
2018-09-03T20:21:26.191Z,14.83
2018-09-03T20:23:55.009Z,16.00
2018-09-03T20:26:23.817Z,14.60
2018-09-03T20:28:52.414Z,16.90
2018-09-03T20:31:21.156Z,14.83
2018-09-03T20:33:50.028Z,14.40
2018-09-03T20:36:18.567Z,15.53
2018-09-03T20:38:47.127Z,16.50
2018-09-03T20:41:15.683Z,15.50
2018-09-03T20:43:44.195Z,15.23
2018-09-03T20:46:12.851Z,16.70
2018-09-03T20:48:41.515Z,16.10
2018-09-03T20:51:10.184Z,16.13
2018-09-03T20:53:38.723Z,14.37
2018-09-03T20:56:13.548Z,15.47
2018-09-03T20:58:42.058Z,15.27
2018-09-03T21:01:10.712Z,15.17
2018-09-03T21:03:39.229Z,14.83
2018-09-03T21:06:07.892Z,17.20
2018-09-03T21:08:36.410Z,15.00
2018-09-03T21:11:05.048Z,16.97
2018-09-03T21:13:33.792Z,15.77
2018-09-03T21:16:02.835Z,16.43
2018-09-03T21:18:31.664Z,16.40
2018-09-03T21:21:00.304Z,15.97
2018-09-03T21:23:28.873Z,17.73
2018-09-03T21:25:57.712Z,18.03
2018-09-03T21:28:26.561Z,17.90
2018-09-03T21:30:55.585Z,16.73
2018-09-03T21:33:24.205Z,19.87
2018-09-03T21:35:53.223Z,15.80
2018-09-03T21:38:21.795Z,18.10
2018-09-03T21:40:50.439Z,17.57
2018-09-03T21:43:18.971Z,20.07
2018-09-03T21:45:47.546Z,18.00
2018-09-03T21:48:16.176Z,19.63
2018-09-03T21:50:44.773Z,17.83
2018-09-03T21:53:13.222Z,20.27
2018-09-03T21:55:41.909Z,17.67
2018-09-03T21:58:10.595Z,18.00
2018-09-03T22:00:39.179Z,18.13
2018-09-03T22:03:11.128Z,19.13
2018-09-03T22:05:39.769Z,16.60
2018-09-03T22:08:09.396Z,17.50
2018-09-03T22:10:38.110Z,18.77
2018-09-03T22:13:07.185Z,16.60
2018-09-03T22:15:39.239Z,16.70
2018-09-03T22:18:09.064Z,15.30
2018-09-03T22:20:38.100Z,17.50
2018-09-03T22:23:07.251Z,17.43
2018-09-03T22:25:36.148Z,17.00
2018-09-03T22:28:04.894Z,18.27
2018-09-03T22:30:33.556Z,19.30
2018-09-03T22:33:02.075Z,17.97
2018-09-03T22:35:30.735Z,19.30
2018-09-03T22:37:59.204Z,15.37
2018-09-03T22:40:27.799Z,17.57
2018-09-03T22:42:56.339Z,16.37
2018-09-03T22:45:24.964Z,18.60
2018-09-03T22:47:53.577Z,16.90
2018-09-03T22:50:22.162Z,16.73
2018-09-03T22:52:50.709Z,18.07
2018-09-03T22:55:19.127Z,18.67
2018-09-03T22:57:47.579Z,16.37
2018-09-03T23:00:16.065Z,17.70
2018-09-03T23:02:46.919Z,18.53
2018-09-03T23:05:15.532Z,18.90
2018-09-03T23:07:43.946Z,17.10
2018-09-03T23:10:12.578Z,16.27
2018-09-03T23:12:41.065Z,18.87
2018-09-03T23:15:10.119Z,16.60
2018-09-03T23:17:38.558Z,16.07
2018-09-03T23:20:07.020Z,17.77
2018-09-03T23:22:35.500Z,18.03
2018-09-03T23:25:03.915Z,15.87
2018-09-03T23:27:32.396Z,16.10
2018-09-03T23:30:01.049Z,17.10
2018-09-03T23:32:29.635Z,18.00
2018-09-03T23:34:58.189Z,16.77
2018-09-03T23:37:26.668Z,19.23
2018-09-03T23:39:55.244Z,17.90
2018-09-03T23:42:23.746Z,16.57
2018-09-03T23:44:52.149Z,15.90
2018-09-03T23:47:20.584Z,18.13
2018-09-03T23:49:49.112Z,17.40
2018-09-03T23:52:17.522Z,17.83
2018-09-03T23:54:46.139Z,18.67
2018-09-03T23:57:14.861Z,17.00
2018-09-03T23:59:43.280Z,17.10
